sensor_id;sensor_type;location;lat;lon;timestamp;temperature;humidity
70151;DHT22;57517;43.562;19.540;2022-08-05T00:01:21;538.40;1894.40
70151;DHT22;57517;43.562;19.540;2022-08-05T00:03:50;538.30;1894.40
70151;DHT22;57517;43.562;19.540;2022-08-05T00:06:16;538.20;1920.00
70151;DHT22;57517;43.562;19.540;2022-08-05T00:08:43;538.00;1945.60
70151;DHT22;57517;43.562;19.540;2022-08-05T00:11:12;538.00;1920.00
70151;DHT22;57517;43.562;19.540;2022-08-05T00:13:40;538.10;1894.40
70151;DHT22;57517;43.562;19.540;2022-08-05T00:16:08;538.30;1894.40
70151;DHT22;57517;43.562;19.540;2022-08-05T00:18:35;538.40;1868.80
70151;DHT22;57517;43.562;19.540;2022-08-05T00:21:01;538.30;1868.80
70151;DHT22;57517;43.562;19.540;2022-08-05T00:23:27;538.20;1894.40
70151;DHT22;57517;43.562;19.540;2022-08-05T00:25:53;537.90;1920.00
70151;DHT22;57517;43.562;19.540;2022-08-05T00:28:19;538.10;1894.40
70151;DHT22;57517;43.562;19.540;2022-08-05T00:30:44;538.00;1920.00
70151;DHT22;57517;43.562;19.540;2022-08-05T00:33:10;538.00;1894.40
70151;DHT22;57517;43.562;19.540;2022-08-05T00:35:36;537.90;1920.00
70151;DHT22;57517;43.562;19.540;2022-08-05T00:38:02;538.00;1894.40
70151;DHT22;57517;43.562;19.540;2022-08-05T00:40:28;537.80;1920.00
70151;DHT22;57517;43.562;19.540;2022-08-05T00:42:59;512.90;1920.00
70151;DHT22;57517;43.562;19.540;2022-08-05T00:45:25;512.70;1945.60
70151;DHT22;57517;43.562;19.540;2022-08-05T00:47:51;512.40;1996.80
70151;DHT22;57517;43.562;19.540;2022-08-05T00:50:16;512.50;1996.80
70151;DHT22;57517;43.562;19.540;2022-08-05T00:52:42;512.70;1971.20
70151;DHT22;57517;43.562;19.540;2022-08-05T00:55:08;512.80;1971.20
70151;DHT22;57517;43.562;19.540;2022-08-05T00:57:34;512.70;1971.20
70151;DHT22;57517;43.562;19.540;2022-08-05T01:00:01;512.50;1996.80
70151;DHT22;57517;43.562;19.540;2022-08-05T01:02:27;512.70;1971.20
70151;DHT22;57517;43.562;19.540;2022-08-05T01:04:53;512.90;1971.20
70151;DHT22;57517;43.562;19.540;2022-08-05T01:07:18;537.70;1971.20
70151;DHT22;57517;43.562;19.540;2022-08-05T01:09:44;537.60;1971.20
70151;DHT22;57517;43.562;19.540;2022-08-05T01:12:16;512.90;1971.20
70151;DHT22;57517;43.562;19.540;2022-08-05T01:14:58;512.90;1945.60
70151;DHT22;57517;43.562;19.540;2022-08-05T01:17:31;512.70;1971.20
70151;DHT22;57517;43.562;19.540;2022-08-05T01:31:16;512.70;1971.20
70151;DHT22;57517;43.562;19.540;2022-08-05T01:33:49;512.70;1945.60
70151;DHT22;57517;43.562;19.540;2022-08-05T01:36:17;512.70;1945.60
70151;DHT22;57517;43.562;19.540;2022-08-05T01:38:45;512.70;1945.60
70151;DHT22;57517;43.562;19.540;2022-08-05T01:41:15;512.50;1996.80
70151;DHT22;57517;43.562;19.540;2022-08-05T01:43:42;512.20;2022.40
70151;DHT22;57517;43.562;19.540;2022-08-05T01:46:09;487.30;2022.40
70151;DHT22;57517;43.562;19.540;2022-08-05T01:48:35;487.10;2048.00
70151;DHT22;57517;43.562;19.540;2022-08-05T01:51:03;487.10;2048.00
70151;DHT22;57517;43.562;19.540;2022-08-05T01:53:31;487.20;2048.00
70151;DHT22;57517;43.562;19.540;2022-08-05T01:55:59;487.30;2048.00
70151;DHT22;57517;43.562;19.540;2022-08-05T01:58:26;512.00;2022.40
70151;DHT22;57517;43.562;19.540;2022-08-05T02:00:55;512.10;2022.40
70151;DHT22;57517;43.562;19.540;2022-08-05T02:03:33;512.20;2022.40
70151;DHT22;57517;43.562;19.540;2022-08-05T02:06:05;512.10;2048.00
70151;DHT22;57517;43.562;19.540;2022-08-05T02:08:32;512.10;2048.00
70151;DHT22;57517;43.562;19.540;2022-08-05T02:11:04;487.20;2048.00
70151;DHT22;57517;43.562;19.540;2022-08-05T02:16:25;487.20;2073.60
70151;DHT22;57517;43.562;19.540;2022-08-05T02:18:59;487.30;2048.00
70151;DHT22;57517;43.562;19.540;2022-08-05T02:21:29;512.10;2048.00
70151;DHT22;57517;43.562;19.540;2022-08-05T02:24:04;487.30;2048.00
70151;DHT22;57517;43.562;19.540;2022-08-05T02:26:48;487.10;2073.60
70151;DHT22;57517;43.562;19.540;2022-08-05T02:29:20;487.10;2073.60
70151;DHT22;57517;43.562;19.540;2022-08-05T02:31:48;487.10;2099.20
70151;DHT22;57517;43.562;19.540;2022-08-05T02:34:16;487.10;2099.20
70151;DHT22;57517;43.562;19.540;2022-08-05T02:36:48;486.80;2124.80
70151;DHT22;57517;43.562;19.540;2022-08-05T02:39:17;486.80;2124.80
70151;DHT22;57517;43.562;19.540;2022-08-05T02:41:46;486.50;2150.40
70151;DHT22;57517;43.562;19.540;2022-08-05T02:44:12;486.50;2150.40
70151;DHT22;57517;43.562;19.540;2022-08-05T02:46:40;486.50;2176.00
70151;DHT22;57517;43.562;19.540;2022-08-05T02:49:07;486.40;2176.00
70151;DHT22;57517;43.562;19.540;2022-08-05T02:51:36;486.50;2150.40
70151;DHT22;57517;43.562;19.540;2022-08-05T02:54:04;486.80;2124.80
70151;DHT22;57517;43.562;19.540;2022-08-05T02:56:32;486.80;2099.20
70151;DHT22;57517;43.562;19.540;2022-08-05T02:58:59;486.80;2099.20
70151;DHT22;57517;43.562;19.540;2022-08-05T03:01:26;486.90;2073.60
70151;DHT22;57517;43.562;19.540;2022-08-05T03:03:57;486.80;2099.20
70151;DHT22;57517;43.562;19.540;2022-08-05T03:06:25;486.60;2124.80
70151;DHT22;57517;43.562;19.540;2022-08-05T03:08:52;486.50;2150.40
70151;DHT22;57517;43.562;19.540;2022-08-05T03:11:24;486.50;2150.40
70151;DHT22;57517;43.562;19.540;2022-08-05T03:13:50;486.50;2150.40
70151;DHT22;57517;43.562;19.540;2022-08-05T03:16:17;461.60;2176.00
70151;DHT22;57517;43.562;19.540;2022-08-05T03:18:44;461.60;2176.00
70151;DHT22;57517;43.562;19.540;2022-08-05T03:21:10;461.60;2201.60
70151;DHT22;57517;43.562;19.540;2022-08-05T03:23:38;461.60;2201.60
70151;DHT22;57517;43.562;19.540;2022-08-05T03:26:05;461.60;2201.60
70151;DHT22;57517;43.562;19.540;2022-08-05T03:28:31;461.60;2201.60
70151;DHT22;57517;43.562;19.540;2022-08-05T03:30:59;461.70;2176.00
70151;DHT22;57517;43.562;19.540;2022-08-05T03:33:29;486.50;2150.40
70151;DHT22;57517;43.562;19.540;2022-08-05T03:35:56;486.60;2150.40
70151;DHT22;57517;43.562;19.540;2022-08-05T03:38:23;486.50;2150.40
70151;DHT22;57517;43.562;19.540;2022-08-05T03:40:50;486.50;2150.40
70151;DHT22;57517;43.562;19.540;2022-08-05T03:43:18;486.60;2150.40
70151;DHT22;57517;43.562;19.540;2022-08-05T03:45:45;486.50;2124.80
70151;DHT22;57517;43.562;19.540;2022-08-05T03:48:11;486.60;2124.80
70151;DHT22;57517;43.562;19.540;2022-08-05T03:50:44;486.60;2124.80
70151;DHT22;57517;43.562;19.540;2022-08-05T03:53:13;486.50;2150.40
70151;DHT22;57517;43.562;19.540;2022-08-05T03:56:52;486.50;2124.80
70151;DHT22;57517;43.562;19.540;2022-08-05T03:58:55;461.70;2150.40
70151;DHT22;57517;43.562;19.540;2022-08-05T04:01:22;461.60;2176.00
70151;DHT22;57517;43.562;19.540;2022-08-05T04:03:50;461.60;2150.40
70151;DHT22;57517;43.562;19.540;2022-08-05T04:06:17;461.70;2150.40
70151;DHT22;57517;43.562;19.540;2022-08-05T04:08:44;461.70;2150.40
70151;DHT22;57517;43.562;19.540;2022-08-05T04:11:11;486.40;2124.80
70151;DHT22;57517;43.562;19.540;2022-08-05T04:13:40;486.50;2124.80
70151;DHT22;57517;43.562;19.540;2022-08-05T04:16:07;486.50;2124.80
70151;DHT22;57517;43.562;19.540;2022-08-05T04:18:34;486.50;2124.80
70151;DHT22;57517;43.562;19.540;2022-08-05T04:21:00;486.70;2099.20
70151;DHT22;57517;43.562;19.540;2022-08-05T04:23:27;486.70;2099.20
70151;DHT22;57517;43.562;19.540;2022-08-05T04:25:53;486.50;2124.80
70151;DHT22;57517;43.562;19.540;2022-08-05T04:28:19;486.70;2099.20
70151;DHT22;57517;43.562;19.540;2022-08-05T04:30:46;486.90;2073.60
70151;DHT22;57517;43.562;19.540;2022-08-05T04:33:12;487.10;2073.60
70151;DHT22;57517;43.562;19.540;2022-08-05T04:35:39;487.10;2048.00
70151;DHT22;57517;43.562;19.540;2022-08-05T04:38:05;487.10;2048.00
70151;DHT22;57517;43.562;19.540;2022-08-05T04:40:34;487.20;2048.00
70151;DHT22;57517;43.562;19.540;2022-08-05T04:43:00;487.10;2048.00
70151;DHT22;57517;43.562;19.540;2022-08-05T04:45:26;487.30;2048.00
70151;DHT22;57517;43.562;19.540;2022-08-05T04:47:52;512.00;2022.40
70151;DHT22;57517;43.562;19.540;2022-08-05T04:50:18;512.20;1996.80
70151;DHT22;57517;43.562;19.540;2022-08-05T04:52:44;512.40;1996.80
70151;DHT22;57517;43.562;19.540;2022-08-05T04:55:10;512.50;1971.20
70151;DHT22;57517;43.562;19.540;2022-08-05T04:57:36;512.70;1945.60
70151;DHT22;57517;43.562;19.540;2022-08-05T05:00:03;512.70;1945.60
70151;DHT22;57517;43.562;19.540;2022-08-05T05:02:30;512.80;1945.60
70151;DHT22;57517;43.562;19.540;2022-08-05T05:04:55;538.40;1868.80
70151;DHT22;57517;43.562;19.540;2022-08-05T05:07:22;589.60;1689.60
70151;DHT22;57517;43.562;19.540;2022-08-05T05:09:47;640.50;1536.00
70151;DHT22;57517;43.562;19.540;2022-08-05T05:12:13;666.50;1459.20
70151;DHT22;57517;43.562;19.540;2022-08-05T05:14:39;691.90;1382.40
70151;DHT22;57517;43.562;19.540;2022-08-05T05:17:05;717.30;1331.20
70151;DHT22;57517;43.562;19.540;2022-08-05T05:19:31;742.50;1305.60
70151;DHT22;57517;43.562;19.540;2022-08-05T05:21:56;743.10;1254.40
70151;DHT22;57517;43.562;19.540;2022-08-05T05:24:22;743.30;1228.80
70151;DHT22;57517;43.562;19.540;2022-08-05T05:26:48;768.60;1203.20
70151;DHT22;57517;43.562;19.540;2022-08-05T05:29:14;768.90;1177.60
70151;DHT22;57517;43.562;19.540;2022-08-05T05:31:40;793.90;1177.60
70151;DHT22;57517;43.562;19.540;2022-08-05T05:34:05;794.30;1152.00
70151;DHT22;57517;43.562;19.540;2022-08-05T05:36:31;794.50;1126.40
70151;DHT22;57517;43.562;19.540;2022-08-05T05:38:57;819.50;1100.80
70151;DHT22;57517;43.562;19.540;2022-08-05T05:41:23;819.70;1075.20
70151;DHT22;57517;43.562;19.540;2022-08-05T05:43:49;845.10;1075.20
70151;DHT22;57517;43.562;19.540;2022-08-05T05:46:15;845.00;1049.60
70151;DHT22;57517;43.562;19.540;2022-08-05T05:48:41;845.20;1049.60
70151;DHT22;57517;43.562;19.540;2022-08-05T05:51:08;870.70;972.80
70151;DHT22;57517;43.562;19.540;2022-08-05T05:53:34;870.90;972.80
70151;DHT22;57517;43.562;19.540;2022-08-05T05:55:59;871.10;947.20
70151;DHT22;57517;43.562;19.540;2022-08-05T05:58:26;871.30;921.60
70151;DHT22;57517;43.562;19.540;2022-08-05T06:00:51;896.70;896.00
70151;DHT22;57517;43.562;19.540;2022-08-05T06:03:17;922.20;870.40
70151;DHT22;57517;43.562;19.540;2022-08-05T06:05:43;922.30;870.40
70151;DHT22;57517;43.562;19.540;2022-08-05T06:08:09;922.10;870.40
70151;DHT22;57517;43.562;19.540;2022-08-05T06:10:35;947.30;819.20
70151;DHT22;57517;43.562;19.540;2022-08-05T06:13:01;947.30;819.20
70151;DHT22;57517;43.562;19.540;2022-08-05T06:15:27;947.30;819.20
70151;DHT22;57517;43.562;19.540;2022-08-05T06:17:53;947.20;819.20
70151;DHT22;57517;43.562;19.540;2022-08-05T06:20:18;947.90;793.60
70151;DHT22;57517;43.562;19.540;2022-08-05T06:22:44;973.10;793.60
70151;DHT22;57517;43.562;19.540;2022-08-05T06:25:10;973.00;768.00
70151;DHT22;57517;43.562;19.540;2022-08-05T06:27:37;973.40;742.40
70151;DHT22;57517;43.562;19.540;2022-08-05T06:30:04;998.60;768.00
70151;DHT22;57517;43.562;19.540;2022-08-05T06:32:30;973.50;742.40
70151;DHT22;57517;43.562;19.540;2022-08-05T06:34:56;973.20;768.00
70151;DHT22;57517;43.562;19.540;2022-08-05T06:37:26;973.40;742.40
70151;DHT22;57517;43.562;19.540;2022-08-05T06:39:52;973.50;742.40
70151;DHT22;57517;43.562;19.540;2022-08-05T06:42:18;973.00;768.00
70151;DHT22;57517;43.562;19.540;2022-08-05T06:44:44;973.00;768.00
70151;DHT22;57517;43.562;19.540;2022-08-05T06:47:10;973.60;742.40
70151;DHT22;57517;43.562;19.540;2022-08-05T06:49:36;973.50;742.40
70151;DHT22;57517;43.562;19.540;2022-08-05T06:52:01;998.70;716.80
70151;DHT22;57517;43.562;19.540;2022-08-05T06:54:27;998.70;742.40
70151;DHT22;57517;43.562;19.540;2022-08-05T06:56:53;1024.00;716.80
70151;DHT22;57517;43.562;19.540;2022-08-05T06:59:19;1024.20;716.80
70151;DHT22;57517;43.562;19.540;2022-08-05T07:01:45;1024.10;691.20
70151;DHT22;57517;43.562;19.540;2022-08-05T07:04:11;1024.00;691.20
70151;DHT22;57517;43.562;19.540;2022-08-05T07:06:36;1024.00;691.20
70151;DHT22;57517;43.562;19.540;2022-08-05T07:09:03;1024.10;691.20
70151;DHT22;57517;43.562;19.540;2022-08-05T07:11:29;998.80;716.80
70151;DHT22;57517;43.562;19.540;2022-08-05T07:13:56;999.00;691.20
70151;DHT22;57517;43.562;19.540;2022-08-05T07:16:41;999.00;691.20
70151;DHT22;57517;43.562;19.540;2022-08-05T07:19:20;999.00;716.80
70151;DHT22;57517;43.562;19.540;2022-08-05T07:21:47;998.90;716.80
70151;DHT22;57517;43.562;19.540;2022-08-05T07:24:14;999.00;691.20
70151;DHT22;57517;43.562;19.540;2022-08-05T07:26:40;973.50;716.80
70151;DHT22;57517;43.562;19.540;2022-08-05T07:29:07;998.90;691.20
70151;DHT22;57517;43.562;19.540;2022-08-05T07:31:33;999.10;691.20
70151;DHT22;57517;43.562;19.540;2022-08-05T07:33:59;998.80;716.80
70151;DHT22;57517;43.562;19.540;2022-08-05T07:36:25;973.50;716.80
70151;DHT22;57517;43.562;19.540;2022-08-05T07:38:52;973.40;716.80
70151;DHT22;57517;43.562;19.540;2022-08-05T07:41:20;973.00;742.40
70151;DHT22;57517;43.562;19.540;2022-08-05T07:43:46;947.60;768.00
70151;DHT22;57517;43.562;19.540;2022-08-05T07:46:12;947.50;768.00
70151;DHT22;57517;43.562;19.540;2022-08-05T07:48:38;922.40;793.60
70151;DHT22;57517;43.562;19.540;2022-08-05T07:51:04;922.40;793.60
70151;DHT22;57517;43.562;19.540;2022-08-05T07:53:30;922.10;844.80
70151;DHT22;57517;43.562;19.540;2022-08-05T07:55:55;921.80;844.80
70151;DHT22;57517;43.562;19.540;2022-08-05T07:58:21;921.80;844.80
70151;DHT22;57517;43.562;19.540;2022-08-05T08:00:47;921.70;844.80
70151;DHT22;57517;43.562;19.540;2022-08-05T08:03:15;896.30;844.80
70151;DHT22;57517;43.562;19.540;2022-08-05T08:05:41;896.70;819.20
70151;DHT22;57517;43.562;19.540;2022-08-05T08:08:09;896.90;793.60
70151;DHT22;57517;43.562;19.540;2022-08-05T08:10:35;896.30;844.80
70151;DHT22;57517;43.562;19.540;2022-08-05T08:13:01;870.80;896.00
70151;DHT22;57517;43.562;19.540;2022-08-05T08:15:26;870.70;896.00
70151;DHT22;57517;43.562;19.540;2022-08-05T08:17:52;870.60;921.60
70151;DHT22;57517;43.562;19.540;2022-08-05T08:20:19;870.50;921.60
70151;DHT22;57517;43.562;19.540;2022-08-05T08:22:55;845.60;947.20
70151;DHT22;57517;43.562;19.540;2022-08-05T08:25:22;870.40;921.60
70151;DHT22;57517;43.562;19.540;2022-08-05T08:27:48;845.60;972.80
70151;DHT22;57517;43.562;19.540;2022-08-05T08:30:15;845.50;972.80
70151;DHT22;57517;43.562;19.540;2022-08-05T08:32:40;845.50;947.20
70151;DHT22;57517;43.562;19.540;2022-08-05T08:35:07;870.40;947.20
70151;DHT22;57517;43.562;19.540;2022-08-05T08:37:33;870.50;921.60
70151;DHT22;57517;43.562;19.540;2022-08-05T08:39:59;870.70;896.00
70151;DHT22;57517;43.562;19.540;2022-08-05T08:42:26;870.40;921.60
70151;DHT22;57517;43.562;19.540;2022-08-05T08:44:54;870.50;921.60
70151;DHT22;57517;43.562;19.540;2022-08-05T08:47:25;870.60;947.20
70151;DHT22;57517;43.562;19.540;2022-08-05T08:49:53;870.50;947.20
70151;DHT22;57517;43.562;19.540;2022-08-05T08:52:23;845.70;921.60
70151;DHT22;57517;43.562;19.540;2022-08-05T08:54:51;845.70;947.20
70151;DHT22;57517;43.562;19.540;2022-08-05T08:57:18;870.40;947.20
70151;DHT22;57517;43.562;19.540;2022-08-05T08:59:45;845.60;947.20
70151;DHT22;57517;43.562;19.540;2022-08-05T09:02:11;845.60;921.60
70151;DHT22;57517;43.562;19.540;2022-08-05T09:04:37;870.40;921.60
70151;DHT22;57517;43.562;19.540;2022-08-05T09:07:04;870.40;896.00
70151;DHT22;57517;43.562;19.540;2022-08-05T09:09:32;870.40;896.00
70151;DHT22;57517;43.562;19.540;2022-08-05T09:11:58;870.40;896.00
70151;DHT22;57517;43.562;19.540;2022-08-05T09:14:24;845.70;921.60
70151;DHT22;57517;43.562;19.540;2022-08-05T09:16:50;870.50;896.00
70151;DHT22;57517;43.562;19.540;2022-08-05T09:19:16;870.60;844.80
70151;DHT22;57517;43.562;19.540;2022-08-05T09:21:42;870.50;844.80
70151;DHT22;57517;43.562;19.540;2022-08-05T09:24:08;870.50;844.80
70151;DHT22;57517;43.562;19.540;2022-08-05T09:26:35;870.70;844.80
70151;DHT22;57517;43.562;19.540;2022-08-05T09:29:05;870.70;819.20
70151;DHT22;57517;43.562;19.540;2022-08-05T09:31:32;870.70;819.20
70151;DHT22;57517;43.562;19.540;2022-08-05T09:34:06;870.80;819.20
70151;DHT22;57517;43.562;19.540;2022-08-05T09:36:48;870.80;793.60
70151;DHT22;57517;43.562;19.540;2022-08-05T09:39:16;870.70;819.20
70151;DHT22;57517;43.562;19.540;2022-08-05T09:44:40;870.70;793.60
70151;DHT22;57517;43.562;19.540;2022-08-05T09:47:08;870.80;793.60
70151;DHT22;57517;43.562;19.540;2022-08-05T09:49:48;870.80;768.00
70151;DHT22;57517;43.562;19.540;2022-08-05T09:52:23;870.90;768.00
70151;DHT22;57517;43.562;19.540;2022-08-05T09:57:37;870.90;742.40
70151;DHT22;57517;43.562;19.540;2022-08-05T10:00:10;870.90;742.40
70151;DHT22;57517;43.562;19.540;2022-08-05T10:02:42;870.90;768.00
70151;DHT22;57517;43.562;19.540;2022-08-05T10:07:52;870.90;768.00
70151;DHT22;57517;43.562;19.540;2022-08-05T10:10:26;870.90;768.00
70151;DHT22;57517;43.562;19.540;2022-08-05T10:12:57;870.80;768.00
70151;DHT22;57517;43.562;19.540;2022-08-05T10:18:12;870.70;742.40
70151;DHT22;57517;43.562;19.540;2022-08-05T10:20:40;870.60;742.40
70151;DHT22;57517;43.562;19.540;2022-08-05T10:23:08;870.40;742.40
70151;DHT22;57517;43.562;19.540;2022-08-05T10:25:34;870.50;742.40
70151;DHT22;57517;43.562;19.540;2022-08-05T10:28:01;870.50;742.40
70151;DHT22;57517;43.562;19.540;2022-08-05T10:30:27;870.40;768.00
70151;DHT22;57517;43.562;19.540;2022-08-05T10:32:54;870.40;768.00
70151;DHT22;57517;43.562;19.540;2022-08-05T10:35:21;870.40;768.00
70151;DHT22;57517;43.562;19.540;2022-08-05T10:37:47;870.50;768.00
70151;DHT22;57517;43.562;19.540;2022-08-05T10:40:35;870.60;768.00
70151;DHT22;57517;43.562;19.540;2022-08-05T10:44:05;870.60;768.00
70151;DHT22;57517;43.562;19.540;2022-08-05T10:46:16;870.60;742.40
70151;DHT22;57517;43.562;19.540;2022-08-05T10:48:46;870.60;768.00
70151;DHT22;57517;43.562;19.540;2022-08-05T10:51:19;870.50;768.00
70151;DHT22;57517;43.562;19.540;2022-08-05T10:53:56;870.50;768.00
70151;DHT22;57517;43.562;19.540;2022-08-05T10:56:28;870.70;742.40
70151;DHT22;57517;43.562;19.540;2022-08-05T11:01:40;870.90;742.40
70151;DHT22;57517;43.562;19.540;2022-08-05T11:04:13;870.90;768.00
70151;DHT22;57517;43.562;19.540;2022-08-05T11:09:24;870.90;742.40
70151;DHT22;57517;43.562;19.540;2022-08-05T11:11:54;870.90;742.40
70151;DHT22;57517;43.562;19.540;2022-08-05T11:14:29;870.90;742.40
70151;DHT22;57517;43.562;19.540;2022-08-05T11:17:24;870.90;742.40
70151;DHT22;57517;43.562;19.540;2022-08-05T11:19:53;870.90;768.00
70151;DHT22;57517;43.562;19.540;2022-08-05T11:22:46;870.90;742.40
70151;DHT22;57517;43.562;19.540;2022-08-05T11:25:32;871.10;742.40
70151;DHT22;57517;43.562;19.540;2022-08-05T11:36:15;896.00;742.40
70151;DHT22;57517;43.562;19.540;2022-08-05T11:41:16;871.10;716.80
70151;DHT22;57517;43.562;19.540;2022-08-05T11:44:04;871.10;716.80
70151;DHT22;57517;43.562;19.540;2022-08-05T11:49:07;871.10;716.80
70151;DHT22;57517;43.562;19.540;2022-08-05T11:51:35;871.10;716.80
70151;DHT22;57517;43.562;19.540;2022-08-05T11:54:01;871.10;742.40
70151;DHT22;57517;43.562;19.540;2022-08-05T11:59:24;871.00;742.40
70151;DHT22;57517;43.562;19.540;2022-08-05T12:01:59;870.80;742.40
70151;DHT22;57517;43.562;19.540;2022-08-05T12:04:45;870.80;742.40
70151;DHT22;57517;43.562;19.540;2022-08-05T12:07:16;870.80;716.80
70151;DHT22;57517;43.562;19.540;2022-08-05T12:09:46;870.70;716.80
70151;DHT22;57517;43.562;19.540;2022-08-05T12:12:12;870.90;716.80
70151;DHT22;57517;43.562;19.540;2022-08-05T12:14:45;870.80;716.80
70151;DHT22;57517;43.562;19.540;2022-08-05T12:17:13;870.70;716.80
70151;DHT22;57517;43.562;19.540;2022-08-05T12:19:47;870.70;793.60
70151;DHT22;57517;43.562;19.540;2022-08-05T12:22:15;870.60;793.60
70151;DHT22;57517;43.562;19.540;2022-08-05T12:24:46;870.50;819.20
70151;DHT22;57517;43.562;19.540;2022-08-05T12:27:24;870.50;742.40
70151;DHT22;57517;43.562;19.540;2022-08-05T12:30:06;870.50;793.60
70151;DHT22;57517;43.562;19.540;2022-08-05T12:32:33;870.60;742.40
70151;DHT22;57517;43.562;19.540;2022-08-05T12:35:05;870.50;768.00
70151;DHT22;57517;43.562;19.540;2022-08-05T12:37:32;870.70;768.00
70151;DHT22;57517;43.562;19.540;2022-08-05T12:39:58;870.70;742.40
70151;DHT22;57517;43.562;19.540;2022-08-05T12:42:28;870.60;742.40
70151;DHT22;57517;43.562;19.540;2022-08-05T12:45:07;870.50;742.40
70151;DHT22;57517;43.562;19.540;2022-08-05T12:47:33;870.60;768.00
70151;DHT22;57517;43.562;19.540;2022-08-05T12:50:02;870.60;768.00
70151;DHT22;57517;43.562;19.540;2022-08-05T12:52:36;870.60;768.00
70151;DHT22;57517;43.562;19.540;2022-08-05T12:55:16;870.50;742.40
70151;DHT22;57517;43.562;19.540;2022-08-05T12:57:43;870.70;716.80
70151;DHT22;57517;43.562;19.540;2022-08-05T13:00:19;870.80;716.80
70151;DHT22;57517;43.562;19.540;2022-08-05T13:02:45;870.90;716.80
70151;DHT22;57517;43.562;19.540;2022-08-05T13:05:11;870.90;716.80
70151;DHT22;57517;43.562;19.540;2022-08-05T13:07:39;870.90;716.80
70151;DHT22;57517;43.562;19.540;2022-08-05T13:10:09;870.90;716.80
70151;DHT22;57517;43.562;19.540;2022-08-05T13:12:40;871.00;716.80
70151;DHT22;57517;43.562;19.540;2022-08-05T13:15:09;871.00;716.80
70151;DHT22;57517;43.562;19.540;2022-08-05T13:17:35;871.10;716.80
70151;DHT22;57517;43.562;19.540;2022-08-05T13:20:14;871.10;716.80
70151;DHT22;57517;43.562;19.540;2022-08-05T13:22:49;871.10;716.80
70151;DHT22;57517;43.562;19.540;2022-08-05T13:25:17;871.00;691.20
70151;DHT22;57517;43.562;19.540;2022-08-05T13:27:47;871.00;691.20
70151;DHT22;57517;43.562;19.540;2022-08-05T13:30:14;870.90;691.20
70151;DHT22;57517;43.562;19.540;2022-08-05T13:32:41;871.00;691.20
70151;DHT22;57517;43.562;19.540;2022-08-05T13:35:08;871.00;691.20
70151;DHT22;57517;43.562;19.540;2022-08-05T13:37:34;871.00;691.20
70151;DHT22;57517;43.562;19.540;2022-08-05T13:40:00;870.90;691.20
70151;DHT22;57517;43.562;19.540;2022-08-05T13:42:26;870.90;691.20
70151;DHT22;57517;43.562;19.540;2022-08-05T13:44:54;870.90;691.20
70151;DHT22;57517;43.562;19.540;2022-08-05T13:47:21;870.90;716.80
70151;DHT22;57517;43.562;19.540;2022-08-05T13:49:46;870.90;716.80
70151;DHT22;57517;43.562;19.540;2022-08-05T13:54:43;870.80;691.20
70151;DHT22;57517;43.562;19.540;2022-08-05T13:57:10;870.90;716.80
70151;DHT22;57517;43.562;19.540;2022-08-05T13:59:37;870.90;716.80
70151;DHT22;57517;43.562;19.540;2022-08-05T14:02:05;870.80;691.20
70151;DHT22;57517;43.562;19.540;2022-08-05T14:04:36;870.90;716.80
70151;DHT22;57517;43.562;19.540;2022-08-05T14:07:25;870.90;716.80
70151;DHT22;57517;43.562;19.540;2022-08-05T14:09:51;870.80;716.80
70151;DHT22;57517;43.562;19.540;2022-08-05T14:12:18;870.80;716.80
70151;DHT22;57517;43.562;19.540;2022-08-05T14:14:44;870.70;716.80
70151;DHT22;57517;43.562;19.540;2022-08-05T14:17:10;870.70;716.80
70151;DHT22;57517;43.562;19.540;2022-08-05T14:19:35;870.70;716.80
70151;DHT22;57517;43.562;19.540;2022-08-05T14:22:01;870.60;768.00
70151;DHT22;57517;43.562;19.540;2022-08-05T14:24:28;870.50;742.40
70151;DHT22;57517;43.562;19.540;2022-08-05T14:26:54;870.50;793.60
70151;DHT22;57517;43.562;19.540;2022-08-05T14:29:19;870.50;742.40
70151;DHT22;57517;43.562;19.540;2022-08-05T14:31:45;870.40;742.40
70151;DHT22;57517;43.562;19.540;2022-08-05T14:34:11;870.40;793.60
70151;DHT22;57517;43.562;19.540;2022-08-05T14:36:37;870.40;793.60
70151;DHT22;57517;43.562;19.540;2022-08-05T14:39:04;870.40;793.60
70151;DHT22;57517;43.562;19.540;2022-08-05T14:41:31;845.70;793.60
70151;DHT22;57517;43.562;19.540;2022-08-05T14:43:57;845.70;793.60
70151;DHT22;57517;43.562;19.540;2022-08-05T14:46:24;845.60;768.00
70151;DHT22;57517;43.562;19.540;2022-08-05T14:48:50;845.60;716.80
70151;DHT22;57517;43.562;19.540;2022-08-05T14:51:16;845.70;768.00
70151;DHT22;57517;43.562;19.540;2022-08-05T14:53:44;845.70;768.00
70151;DHT22;57517;43.562;19.540;2022-08-05T14:56:11;845.60;819.20
70151;DHT22;57517;43.562;19.540;2022-08-05T14:58:37;845.50;819.20
70151;DHT22;57517;43.562;19.540;2022-08-05T15:01:03;845.50;793.60
70151;DHT22;57517;43.562;19.540;2022-08-05T15:03:29;845.50;793.60
70151;DHT22;57517;43.562;19.540;2022-08-05T15:05:56;845.50;768.00
70151;DHT22;57517;43.562;19.540;2022-08-05T15:08:21;845.50;768.00
70151;DHT22;57517;43.562;19.540;2022-08-05T15:10:47;845.60;716.80
70151;DHT22;57517;43.562;19.540;2022-08-05T15:13:13;845.50;793.60
70151;DHT22;57517;43.562;19.540;2022-08-05T15:15:39;845.50;768.00
70151;DHT22;57517;43.562;19.540;2022-08-05T15:18:05;845.50;819.20
70151;DHT22;57517;43.562;19.540;2022-08-05T15:20:31;845.50;742.40
70151;DHT22;57517;43.562;19.540;2022-08-05T15:23:05;845.50;768.00
70151;DHT22;57517;43.562;19.540;2022-08-05T15:25:32;845.60;716.80
70151;DHT22;57517;43.562;19.540;2022-08-05T15:27:58;845.70;691.20
70151;DHT22;57517;43.562;19.540;2022-08-05T15:30:24;870.40;691.20
70151;DHT22;57517;43.562;19.540;2022-08-05T15:32:50;845.70;691.20
70151;DHT22;57517;43.562;19.540;2022-08-05T15:35:16;845.70;691.20
70151;DHT22;57517;43.562;19.540;2022-08-05T15:37:42;870.40;691.20
70151;DHT22;57517;43.562;19.540;2022-08-05T15:40:08;870.50;691.20